sensor_id;sensor_type;location;lat;lon;timestamp;temperature;humidity
13591;DHT22;6866;50.778;7.206;2022-07-29T00:00:57;20.20;68.50
13591;DHT22;6866;50.778;7.206;2022-07-29T00:03:23;20.30;68.10
13591;DHT22;6866;50.778;7.206;2022-07-29T00:05:48;20.30;68.40
13591;DHT22;6866;50.778;7.206;2022-07-29T00:08:14;20.20;68.50
13591;DHT22;6866;50.778;7.206;2022-07-29T00:10:41;20.30;68.60
13591;DHT22;6866;50.778;7.206;2022-07-29T00:13:07;20.20;68.30
13591;DHT22;6866;50.778;7.206;2022-07-29T00:15:32;20.10;68.80
13591;DHT22;6866;50.778;7.206;2022-07-29T00:17:58;20.00;68.60
13591;DHT22;6866;50.778;7.206;2022-07-29T00:20:23;20.30;68.20
13591;DHT22;6866;50.778;7.206;2022-07-29T00:22:49;20.10;69.00
13591;DHT22;6866;50.778;7.206;2022-07-29T00:25:15;20.20;69.20
13591;DHT22;6866;50.778;7.206;2022-07-29T00:27:40;20.30;69.00
13591;DHT22;6866;50.778;7.206;2022-07-29T00:30:06;19.90;69.70
13591;DHT22;6866;50.778;7.206;2022-07-29T00:32:33;19.90;69.70
13591;DHT22;6866;50.778;7.206;2022-07-29T00:34:58;20.00;70.40
13591;DHT22;6866;50.778;7.206;2022-07-29T00:37:43;20.00;70.00
13591;DHT22;6866;50.778;7.206;2022-07-29T00:40:09;20.10;70.60
13591;DHT22;6866;50.778;7.206;2022-07-29T00:42:45;19.90;70.80
13591;DHT22;6866;50.778;7.206;2022-07-29T00:45:12;19.80;70.60
13591;DHT22;6866;50.778;7.206;2022-07-29T00:47:37;19.90;70.60
13591;DHT22;6866;50.778;7.206;2022-07-29T00:50:04;19.80;70.40
13591;DHT22;6866;50.778;7.206;2022-07-29T00:52:30;19.80;71.10
13591;DHT22;6866;50.778;7.206;2022-07-29T00:54:56;19.80;71.40
13591;DHT22;6866;50.778;7.206;2022-07-29T00:57:22;19.50;72.00
13591;DHT22;6866;50.778;7.206;2022-07-29T00:59:48;19.60;72.00
13591;DHT22;6866;50.778;7.206;2022-07-29T01:04:49;19.50;72.00
13591;DHT22;6866;50.778;7.206;2022-07-29T01:07:15;19.50;71.80
13591;DHT22;6866;50.778;7.206;2022-07-29T01:09:42;19.70;71.70
13591;DHT22;6866;50.778;7.206;2022-07-29T01:12:10;19.70;71.80
13591;DHT22;6866;50.778;7.206;2022-07-29T01:14:36;19.50;71.70
13591;DHT22;6866;50.778;7.206;2022-07-29T01:19:49;19.40;72.00
13591;DHT22;6866;50.778;7.206;2022-07-29T01:22:26;19.50;72.00
13591;DHT22;6866;50.778;7.206;2022-07-29T01:25:34;19.50;72.00
13591;DHT22;6866;50.778;7.206;2022-07-29T01:34:05;19.30;73.40
13591;DHT22;6866;50.778;7.206;2022-07-29T01:39:09;19.30;74.00
13591;DHT22;6866;50.778;7.206;2022-07-29T01:41:38;19.10;73.90
13591;DHT22;6866;50.778;7.206;2022-07-29T01:44:13;19.20;73.60
13591;DHT22;6866;50.778;7.206;2022-07-29T01:46:42;19.20;73.20
13591;DHT22;6866;50.778;7.206;2022-07-29T01:49:16;19.10;74.00
13591;DHT22;6866;50.778;7.206;2022-07-29T01:51:49;19.10;73.60
13591;DHT22;6866;50.778;7.206;2022-07-29T01:56:42;19.30;73.50
13591;DHT22;6866;50.778;7.206;2022-07-29T01:59:09;19.20;73.50
13591;DHT22;6866;50.778;7.206;2022-07-29T02:01:36;19.40;72.80
13591;DHT22;6866;50.778;7.206;2022-07-29T02:04:03;19.10;73.20
13591;DHT22;6866;50.778;7.206;2022-07-29T02:06:32;19.20;72.60
13591;DHT22;6866;50.778;7.206;2022-07-29T02:08:59;19.40;73.00
13591;DHT22;6866;50.778;7.206;2022-07-29T02:11:25;19.10;72.90
13591;DHT22;6866;50.778;7.206;2022-07-29T02:13:53;19.30;73.00
13591;DHT22;6866;50.778;7.206;2022-07-29T02:16:21;18.90;73.50
13591;DHT22;6866;50.778;7.206;2022-07-29T02:18:49;19.10;73.70
13591;DHT22;6866;50.778;7.206;2022-07-29T02:21:21;19.10;73.30
13591;DHT22;6866;50.778;7.206;2022-07-29T02:23:47;18.90;73.80
13591;DHT22;6866;50.778;7.206;2022-07-29T02:26:14;19.00;73.90
13591;DHT22;6866;50.778;7.206;2022-07-29T02:28:42;18.90;73.70
13591;DHT22;6866;50.778;7.206;2022-07-29T02:31:09;18.90;74.50
13591;DHT22;6866;50.778;7.206;2022-07-29T02:33:35;18.70;75.00
13591;DHT22;6866;50.778;7.206;2022-07-29T02:36:02;18.60;75.80
13591;DHT22;6866;50.778;7.206;2022-07-29T02:38:28;18.30;76.60
13591;DHT22;6866;50.778;7.206;2022-07-29T02:41:20;18.40;76.40
13591;DHT22;6866;50.778;7.206;2022-07-29T02:43:47;18.20;75.90
13591;DHT22;6866;50.778;7.206;2022-07-29T02:46:18;18.30;76.70
13591;DHT22;6866;50.778;7.206;2022-07-29T02:48:59;18.30;76.20
13591;DHT22;6866;50.778;7.206;2022-07-29T02:51:37;18.60;76.40
13591;DHT22;6866;50.778;7.206;2022-07-29T02:54:07;18.50;76.20
13591;DHT22;6866;50.778;7.206;2022-07-29T02:56:34;18.30;76.10
13591;DHT22;6866;50.778;7.206;2022-07-29T02:59:06;18.50;76.40
13591;DHT22;6866;50.778;7.206;2022-07-29T03:01:33;18.30;75.80
13591;DHT22;6866;50.778;7.206;2022-07-29T03:04:03;18.40;75.80
13591;DHT22;6866;50.778;7.206;2022-07-29T03:06:30;18.50;76.10
13591;DHT22;6866;50.778;7.206;2022-07-29T03:08:59;18.50;75.60
13591;DHT22;6866;50.778;7.206;2022-07-29T03:11:25;18.50;74.90
13591;DHT22;6866;50.778;7.206;2022-07-29T03:13:51;18.70;74.00
13591;DHT22;6866;50.778;7.206;2022-07-29T03:16:19;18.50;74.40
13591;DHT22;6866;50.778;7.206;2022-07-29T03:18:45;18.60;75.30
13591;DHT22;6866;50.778;7.206;2022-07-29T03:21:10;18.30;75.70
13591;DHT22;6866;50.778;7.206;2022-07-29T03:23:36;18.50;75.40
13591;DHT22;6866;50.778;7.206;2022-07-29T03:26:02;18.40;75.80
13591;DHT22;6866;50.778;7.206;2022-07-29T03:28:27;18.40;76.40
13591;DHT22;6866;50.778;7.206;2022-07-29T03:30:53;18.50;76.40
13591;DHT22;6866;50.778;7.206;2022-07-29T03:33:19;18.50;76.10
13591;DHT22;6866;50.778;7.206;2022-07-29T03:35:45;18.30;75.60
13591;DHT22;6866;50.778;7.206;2022-07-29T03:38:10;18.40;75.50
13591;DHT22;6866;50.778;7.206;2022-07-29T03:40:58;18.60;74.80
13591;DHT22;6866;50.778;7.206;2022-07-29T03:43:27;18.50;75.10
13591;DHT22;6866;50.778;7.206;2022-07-29T03:45:56;18.50;74.70
13591;DHT22;6866;50.778;7.206;2022-07-29T03:48:24;18.70;74.70
13591;DHT22;6866;50.778;7.206;2022-07-29T03:50:50;18.50;75.10
13591;DHT22;6866;50.778;7.206;2022-07-29T03:53:16;18.60;75.30
13591;DHT22;6866;50.778;7.206;2022-07-29T03:55:47;18.70;75.30
13591;DHT22;6866;50.778;7.206;2022-07-29T03:58:14;18.50;75.60
13591;DHT22;6866;50.778;7.206;2022-07-29T04:00:42;18.60;75.40
13591;DHT22;6866;50.778;7.206;2022-07-29T04:03:09;18.40;75.60
13591;DHT22;6866;50.778;7.206;2022-07-29T04:05:35;18.40;75.70
13591;DHT22;6866;50.778;7.206;2022-07-29T04:08:01;18.40;75.70
13591;DHT22;6866;50.778;7.206;2022-07-29T04:10:26;18.40;75.70
13591;DHT22;6866;50.778;7.206;2022-07-29T04:12:52;18.50;75.90
13591;DHT22;6866;50.778;7.206;2022-07-29T04:15:17;18.50;76.10
13591;DHT22;6866;50.778;7.206;2022-07-29T04:17:43;18.60;75.70
13591;DHT22;6866;50.778;7.206;2022-07-29T04:20:09;18.50;75.90
13591;DHT22;6866;50.778;7.206;2022-07-29T04:22:38;18.70;75.90
13591;DHT22;6866;50.778;7.206;2022-07-29T04:25:04;18.60;76.20
13591;DHT22;6866;50.778;7.206;2022-07-29T04:27:30;18.70;76.10
13591;DHT22;6866;50.778;7.206;2022-07-29T04:29:55;18.70;76.10
13591;DHT22;6866;50.778;7.206;2022-07-29T04:32:21;18.60;76.20
13591;DHT22;6866;50.778;7.206;2022-07-29T04:34:47;18.80;76.10
13591;DHT22;6866;50.778;7.206;2022-07-29T04:37:12;18.70;76.90
13591;DHT22;6866;50.778;7.206;2022-07-29T04:39:38;18.50;76.60
13591;DHT22;6866;50.778;7.206;2022-07-29T04:42:04;18.60;76.60
13591;DHT22;6866;50.778;7.206;2022-07-29T04:44:29;18.60;76.50
13591;DHT22;6866;50.778;7.206;2022-07-29T04:46:55;18.70;76.50
13591;DHT22;6866;50.778;7.206;2022-07-29T04:49:21;18.60;76.20
13591;DHT22;6866;50.778;7.206;2022-07-29T04:51:46;18.70;76.00
13591;DHT22;6866;50.778;7.206;2022-07-29T04:54:12;18.80;76.10
13591;DHT22;6866;50.778;7.206;2022-07-29T04:56:37;18.80;76.50
13591;DHT22;6866;50.778;7.206;2022-07-29T04:59:03;18.70;75.90
13591;DHT22;6866;50.778;7.206;2022-07-29T05:01:28;18.70;75.40
13591;DHT22;6866;50.778;7.206;2022-07-29T05:03:54;19.00;75.90
13591;DHT22;6866;50.778;7.206;2022-07-29T05:06:20;19.00;75.50
13591;DHT22;6866;50.778;7.206;2022-07-29T05:08:45;19.10;75.30
13591;DHT22;6866;50.778;7.206;2022-07-29T05:11:11;19.20;75.30
13591;DHT22;6866;50.778;7.206;2022-07-29T05:13:37;19.20;74.50
13591;DHT22;6866;50.778;7.206;2022-07-29T05:16:02;19.40;73.50
13591;DHT22;6866;50.778;7.206;2022-07-29T05:18:28;19.40;73.70
13591;DHT22;6866;50.778;7.206;2022-07-29T05:20:54;19.50;73.40
13591;DHT22;6866;50.778;7.206;2022-07-29T05:23:19;19.70;72.70
13591;DHT22;6866;50.778;7.206;2022-07-29T05:25:45;19.80;72.70
13591;DHT22;6866;50.778;7.206;2022-07-29T05:28:11;19.90;72.50
13591;DHT22;6866;50.778;7.206;2022-07-29T05:30:37;20.10;72.00
13591;DHT22;6866;50.778;7.206;2022-07-29T05:33:02;20.10;70.90
13591;DHT22;6866;50.778;7.206;2022-07-29T05:35:28;20.70;70.40
13591;DHT22;6866;50.778;7.206;2022-07-29T05:37:53;20.70;69.60
13591;DHT22;6866;50.778;7.206;2022-07-29T05:40:19;21.00;68.60
13591;DHT22;6866;50.778;7.206;2022-07-29T05:42:45;21.40;67.40
13591;DHT22;6866;50.778;7.206;2022-07-29T05:45:11;21.10;64.40
13591;DHT22;6866;50.778;7.206;2022-07-29T05:47:36;23.50;61.50
13591;DHT22;6866;50.778;7.206;2022-07-29T05:50:02;25.90;56.50
13591;DHT22;6866;50.778;7.206;2022-07-29T05:52:29;27.60;52.60
13591;DHT22;6866;50.778;7.206;2022-07-29T05:54:55;28.50;50.50
13591;DHT22;6866;50.778;7.206;2022-07-29T05:57:22;28.20;49.30
13591;DHT22;6866;50.778;7.206;2022-07-29T05:59:49;28.40;50.30
13591;DHT22;6866;50.778;7.206;2022-07-29T06:02:15;27.90;49.30
13591;DHT22;6866;50.778;7.206;2022-07-29T06:04:41;27.70;48.90
13591;DHT22;6866;50.778;7.206;2022-07-29T06:07:07;26.10;51.70
13591;DHT22;6866;50.778;7.206;2022-07-29T06:09:33;24.70;54.40
13591;DHT22;6866;50.778;7.206;2022-07-29T06:11:59;23.50;56.50
13591;DHT22;6866;50.778;7.206;2022-07-29T06:14:26;22.80;58.70
13591;DHT22;6866;50.778;7.206;2022-07-29T06:16:54;22.60;60.00
13591;DHT22;6866;50.778;7.206;2022-07-29T06:19:19;22.40;60.40
13591;DHT22;6866;50.778;7.206;2022-07-29T06:21:46;22.20;60.20
13591;DHT22;6866;50.778;7.206;2022-07-29T06:24:12;22.50;60.60
13591;DHT22;6866;50.778;7.206;2022-07-29T06:26:38;22.40;59.90
13591;DHT22;6866;50.778;7.206;2022-07-29T06:29:03;22.70;59.60
13591;DHT22;6866;50.778;7.206;2022-07-29T06:31:29;22.60;59.50
13591;DHT22;6866;50.778;7.206;2022-07-29T06:33:54;23.10;58.60
13591;DHT22;6866;50.778;7.206;2022-07-29T06:36:20;23.40;57.10
13591;DHT22;6866;50.778;7.206;2022-07-29T06:38:46;23.90;56.60
13591;DHT22;6866;50.778;7.206;2022-07-29T06:41:11;24.00;54.80
13591;DHT22;6866;50.778;7.206;2022-07-29T06:43:41;24.50;54.80
13591;DHT22;6866;50.778;7.206;2022-07-29T06:46:15;24.10;54.20
13591;DHT22;6866;50.778;7.206;2022-07-29T06:48:42;23.90;55.00
13591;DHT22;6866;50.778;7.206;2022-07-29T06:51:09;26.30;51.90
13591;DHT22;6866;50.778;7.206;2022-07-29T06:53:35;26.80;50.40
13591;DHT22;6866;50.778;7.206;2022-07-29T06:56:03;25.90;49.70
13591;DHT22;6866;50.778;7.206;2022-07-29T06:58:29;24.90;52.20
13591;DHT22;6866;50.778;7.206;2022-07-29T07:01:00;26.70;53.80
13591;DHT22;6866;50.778;7.206;2022-07-29T07:03:26;29.00;49.10
13591;DHT22;6866;50.778;7.206;2022-07-29T07:05:53;27.30;48.50
13591;DHT22;6866;50.778;7.206;2022-07-29T07:08:19;25.90;50.60
13591;DHT22;6866;50.778;7.206;2022-07-29T07:10:44;25.60;52.50
13591;DHT22;6866;50.778;7.206;2022-07-29T07:13:10;25.90;52.40
13591;DHT22;6866;50.778;7.206;2022-07-29T07:15:36;27.00;51.30
13591;DHT22;6866;50.778;7.206;2022-07-29T07:18:03;26.80;49.50
13591;DHT22;6866;50.778;7.206;2022-07-29T07:20:28;27.70;49.40
13591;DHT22;6866;50.778;7.206;2022-07-29T07:22:54;27.30;47.50
13591;DHT22;6866;50.778;7.206;2022-07-29T07:25:19;26.20;49.40
13591;DHT22;6866;50.778;7.206;2022-07-29T07:27:45;25.40;51.10
13591;DHT22;6866;50.778;7.206;2022-07-29T07:30:11;25.80;51.20
13591;DHT22;6866;50.778;7.206;2022-07-29T07:32:36;26.10;50.30
13591;DHT22;6866;50.778;7.206;2022-07-29T07:35:03;25.90;50.10
13591;DHT22;6866;50.778;7.206;2022-07-29T07:37:29;25.90;50.00
13591;DHT22;6866;50.778;7.206;2022-07-29T07:39:54;25.70;51.50
13591;DHT22;6866;50.778;7.206;2022-07-29T07:42:20;25.40;51.70
13591;DHT22;6866;50.778;7.206;2022-07-29T07:44:46;25.60;51.80
13591;DHT22;6866;50.778;7.206;2022-07-29T07:47:13;25.40;51.70
13591;DHT22;6866;50.778;7.206;2022-07-29T07:49:39;25.10;52.20
13591;DHT22;6866;50.778;7.206;2022-07-29T07:52:04;25.10;52.00
13591;DHT22;6866;50.778;7.206;2022-07-29T07:54:30;24.70;52.00
13591;DHT22;6866;50.778;7.206;2022-07-29T07:56:56;24.70;52.90
13591;DHT22;6866;50.778;7.206;2022-07-29T07:59:22;24.40;53.50
13591;DHT22;6866;50.778;7.206;2022-07-29T08:01:48;24.50;53.80
13591;DHT22;6866;50.778;7.206;2022-07-29T08:04:14;24.20;53.50
13591;DHT22;6866;50.778;7.206;2022-07-29T08:06:39;24.40;54.70
13591;DHT22;6866;50.778;7.206;2022-07-29T08:09:05;24.70;53.30
13591;DHT22;6866;50.778;7.206;2022-07-29T08:11:31;25.00;53.20
13591;DHT22;6866;50.778;7.206;2022-07-29T08:13:57;25.10;53.10
13591;DHT22;6866;50.778;7.206;2022-07-29T08:16:23;25.20;52.50
13591;DHT22;6866;50.778;7.206;2022-07-29T08:18:50;26.60;49.10
13591;DHT22;6866;50.778;7.206;2022-07-29T08:21:16;28.60;46.90
13591;DHT22;6866;50.778;7.206;2022-07-29T08:23:45;29.50;44.40
13591;DHT22;6866;50.778;7.206;2022-07-29T08:26:14;30.30;44.50
13591;DHT22;6866;50.778;7.206;2022-07-29T08:28:42;30.40;43.70
13591;DHT22;6866;50.778;7.206;2022-07-29T08:31:11;30.40;41.40
13591;DHT22;6866;50.778;7.206;2022-07-29T08:33:37;30.20;41.40
13591;DHT22;6866;50.778;7.206;2022-07-29T08:36:02;30.30;42.50
13591;DHT22;6866;50.778;7.206;2022-07-29T08:38:28;29.50;41.60
13591;DHT22;6866;50.778;7.206;2022-07-29T08:40:54;28.50;45.30
13591;DHT22;6866;50.778;7.206;2022-07-29T08:43:19;28.10;46.50
13591;DHT22;6866;50.778;7.206;2022-07-29T08:45:47;28.10;46.90
13591;DHT22;6866;50.778;7.206;2022-07-29T08:48:15;28.10;46.80
13591;DHT22;6866;50.778;7.206;2022-07-29T08:50:42;28.10;47.40
13591;DHT22;6866;50.778;7.206;2022-07-29T08:53:11;28.20;47.60
13591;DHT22;6866;50.778;7.206;2022-07-29T08:55:43;27.90;48.70
13591;DHT22;6866;50.778;7.206;2022-07-29T08:58:09;27.90;47.30
13591;DHT22;6866;50.778;7.206;2022-07-29T09:00:36;27.50;48.60
13591;DHT22;6866;50.778;7.206;2022-07-29T09:03:04;27.80;48.50
13591;DHT22;6866;50.778;7.206;2022-07-29T09:05:30;28.00;46.00
13591;DHT22;6866;50.778;7.206;2022-07-29T09:07:56;28.70;45.70
13591;DHT22;6866;50.778;7.206;2022-07-29T09:10:22;29.40;43.70
13591;DHT22;6866;50.778;7.206;2022-07-29T09:12:48;29.60;42.80
13591;DHT22;6866;50.778;7.206;2022-07-29T09:15:14;29.20;43.50
13591;DHT22;6866;50.778;7.206;2022-07-29T09:17:49;29.50;43.40
13591;DHT22;6866;50.778;7.206;2022-07-29T09:20:20;29.20;43.70
13591;DHT22;6866;50.778;7.206;2022-07-29T09:22:47;29.70;43.60
13591;DHT22;6866;50.778;7.206;2022-07-29T09:25:31;29.60;42.40
13591;DHT22;6866;50.778;7.206;2022-07-29T09:28:08;29.00;44.40
13591;DHT22;6866;50.778;7.206;2022-07-29T09:30:34;29.40;43.80
13591;DHT22;6866;50.778;7.206;2022-07-29T09:33:01;29.60;43.00
13591;DHT22;6866;50.778;7.206;2022-07-29T09:35:28;30.10;43.00
13591;DHT22;6866;50.778;7.206;2022-07-29T09:37:54;30.00;43.00
13591;DHT22;6866;50.778;7.206;2022-07-29T09:40:21;29.80;41.70
13591;DHT22;6866;50.778;7.206;2022-07-29T09:42:46;29.10;43.80
13591;DHT22;6866;50.778;7.206;2022-07-29T09:45:12;29.40;45.60
13591;DHT22;6866;50.778;7.206;2022-07-29T09:47:44;29.40;42.20
13591;DHT22;6866;50.778;7.206;2022-07-29T09:50:10;29.20;42.30
13591;DHT22;6866;50.778;7.206;2022-07-29T09:52:44;29.60;42.30
13591;DHT22;6866;50.778;7.206;2022-07-29T09:55:09;30.10;42.70
13591;DHT22;6866;50.778;7.206;2022-07-29T09:57:35;30.00;42.80
13591;DHT22;6866;50.778;7.206;2022-07-29T10:00:05;30.40;42.50
13591;DHT22;6866;50.778;7.206;2022-07-29T10:02:32;30.10;41.90
13591;DHT22;6866;50.778;7.206;2022-07-29T10:04:58;29.50;42.10
13591;DHT22;6866;50.778;7.206;2022-07-29T10:07:24;29.50;42.40
13591;DHT22;6866;50.778;7.206;2022-07-29T10:09:52;29.50;43.10
13591;DHT22;6866;50.778;7.206;2022-07-29T10:12:18;29.30;43.30
13591;DHT22;6866;50.778;7.206;2022-07-29T10:14:43;29.20;43.10
13591;DHT22;6866;50.778;7.206;2022-07-29T10:17:09;29.30;42.80
13591;DHT22;6866;50.778;7.206;2022-07-29T10:19:35;29.80;44.90
13591;DHT22;6866;50.778;7.206;2022-07-29T10:22:04;29.80;44.90
13591;DHT22;6866;50.778;7.206;2022-07-29T10:24:31;30.20;44.20
13591;DHT22;6866;50.778;7.206;2022-07-29T10:26:58;30.10;45.20
13591;DHT22;6866;50.778;7.206;2022-07-29T10:29:25;30.10;44.40
13591;DHT22;6866;50.778;7.206;2022-07-29T10:43:28;29.30;45.30
13591;DHT22;6866;50.778;7.206;2022-07-29T10:45:55;28.90;46.10
13591;DHT22;6866;50.778;7.206;2022-07-29T10:48:21;28.70;46.20
13591;DHT22;6866;50.778;7.206;2022-07-29T10:50:57;29.10;46.40
13591;DHT22;6866;50.778;7.206;2022-07-29T10:53:24;29.70;46.00
13591;DHT22;6866;50.778;7.206;2022-07-29T10:55:51;29.60;45.30
13591;DHT22;6866;50.778;7.206;2022-07-29T10:58:19;30.00;44.70
13591;DHT22;6866;50.778;7.206;2022-07-29T11:00:47;30.10;44.20
13591;DHT22;6866;50.778;7.206;2022-07-29T11:03:46;29.90;45.30
13591;DHT22;6866;50.778;7.206;2022-07-29T11:06:12;29.60;45.70
13591;DHT22;6866;50.778;7.206;2022-07-29T11:08:38;29.00;46.50
13591;DHT22;6866;50.778;7.206;2022-07-29T11:16:14;28.80;46.40
13591;DHT22;6866;50.778;7.206;2022-07-29T11:21:42;29.00;46.70
13591;DHT22;6866;50.778;7.206;2022-07-29T11:24:16;28.90;47.20
13591;DHT22;6866;50.778;7.206;2022-07-29T11:26:42;29.00;47.60
13591;DHT22;6866;50.778;7.206;2022-07-29T11:29:22;28.90;47.70
13591;DHT22;6866;50.778;7.206;2022-07-29T11:31:50;29.10;47.90
13591;DHT22;6866;50.778;7.206;2022-07-29T11:34:29;29.30;47.40
13591;DHT22;6866;50.778;7.206;2022-07-29T11:44:56;29.00;46.40
13591;DHT22;6866;50.778;7.206;2022-07-29T11:47:23;29.40;47.40
13591;DHT22;6866;50.778;7.206;2022-07-29T11:49:50;29.80;46.20
13591;DHT22;6866;50.778;7.206;2022-07-29T11:52:20;29.60;45.30
13591;DHT22;6866;50.778;7.206;2022-07-29T11:54:48;30.00;46.10
13591;DHT22;6866;50.778;7.206;2022-07-29T11:57:17;30.10;45.50
13591;DHT22;6866;50.778;7.206;2022-07-29T11:59:46;29.80;44.40
13591;DHT22;6866;50.778;7.206;2022-07-29T12:02:13;29.80;45.50
13591;DHT22;6866;50.778;7.206;2022-07-29T12:04:51;29.80;45.50
13591;DHT22;6866;50.778;7.206;2022-07-29T12:07:18;29.90;45.60
13591;DHT22;6866;50.778;7.206;2022-07-29T12:09:51;29.90;45.10
13591;DHT22;6866;50.778;7.206;2022-07-29T12:12:17;29.70;45.20
13591;DHT22;6866;50.778;7.206;2022-07-29T12:14:43;29.40;46.00
13591;DHT22;6866;50.778;7.206;2022-07-29T12:17:28;29.50;45.50
13591;DHT22;6866;50.778;7.206;2022-07-29T12:19:54;29.50;45.10
13591;DHT22;6866;50.778;7.206;2022-07-29T12:22:27;29.40;46.80
13591;DHT22;6866;50.778;7.206;2022-07-29T12:24:54;29.40;45.30
13591;DHT22;6866;50.778;7.206;2022-07-29T12:27:20;29.70;45.40
13591;DHT22;6866;50.778;7.206;2022-07-29T12:29:56;29.70;44.80
13591;DHT22;6866;50.778;7.206;2022-07-29T12:32:22;29.60;45.50
13591;DHT22;6866;50.778;7.206;2022-07-29T12:34:49;29.50;44.70
13591;DHT22;6866;50.778;7.206;2022-07-29T12:37:15;29.10;45.30
13591;DHT22;6866;50.778;7.206;2022-07-29T12:39:41;28.80;46.60
13591;DHT22;6866;50.778;7.206;2022-07-29T12:42:15;28.90;47.30
13591;DHT22;6866;50.778;7.206;2022-07-29T12:44:50;28.60;45.90
13591;DHT22;6866;50.778;7.206;2022-07-29T12:47:16;28.70;46.00
13591;DHT22;6866;50.778;7.206;2022-07-29T12:49:43;29.30;46.00
13591;DHT22;6866;50.778;7.206;2022-07-29T12:52:32;29.20;45.60
13591;DHT22;6866;50.778;7.206;2022-07-29T12:54:59;29.20;45.70
13591;DHT22;6866;50.778;7.206;2022-07-29T12:57:25;29.20;46.00
13591;DHT22;6866;50.778;7.206;2022-07-29T13:00:01;29.00;45.70
13591;DHT22;6866;50.778;7.206;2022-07-29T13:02:26;29.00;45.80
13591;DHT22;6866;50.778;7.206;2022-07-29T13:04:59;29.30;46.10
13591;DHT22;6866;50.778;7.206;2022-07-29T13:07:27;29.50;46.00
13591;DHT22;6866;50.778;7.206;2022-07-29T13:09:54;29.60;45.40
13591;DHT22;6866;50.778;7.206;2022-07-29T13:12:20;29.60;45.10
13591;DHT22;6866;50.778;7.206;2022-07-29T13:14:49;29.60;45.20
13591;DHT22;6866;50.778;7.206;2022-07-29T13:17:20;29.30;45.50
13591;DHT22;6866;50.778;7.206;2022-07-29T13:20:04;29.30;46.00
13591;DHT22;6866;50.778;7.206;2022-07-29T13:22:30;29.30;46.00
13591;DHT22;6866;50.778;7.206;2022-07-29T13:24:56;29.20;45.70
13591;DHT22;6866;50.778;7.206;2022-07-29T13:27:26;29.20;46.70
13591;DHT22;6866;50.778;7.206;2022-07-29T13:29:54;28.80;46.30
13591;DHT22;6866;50.778;7.206;2022-07-29T13:32:22;28.70;46.60
13591;DHT22;6866;50.778;7.206;2022-07-29T13:34:47;28.80;47.20
13591;DHT22;6866;50.778;7.206;2022-07-29T13:37:13;28.90;46.80
13591;DHT22;6866;50.778;7.206;2022-07-29T13:39:39;28.80;47.10
13591;DHT22;6866;50.778;7.206;2022-07-29T13:42:06;28.80;47.30
13591;DHT22;6866;50.778;7.206;2022-07-29T13:44:31;29.00;47.80
13591;DHT22;6866;50.778;7.206;2022-07-29T13:46:57;28.70;47.00
13591;DHT22;6866;50.778;7.206;2022-07-29T13:49:24;28.80;47.60
13591;DHT22;6866;50.778;7.206;2022-07-29T13:51:50;28.80;47.30
13591;DHT22;6866;50.778;7.206;2022-07-29T13:54:15;28.80;47.40
13591;DHT22;6866;50.778;7.206;2022-07-29T13:56:41;29.40;47.10
13591;DHT22;6866;50.778;7.206;2022-07-29T13:59:06;29.10;47.30
13591;DHT22;6866;50.778;7.206;2022-07-29T14:01:33;29.40;46.20
13591;DHT22;6866;50.778;7.206;2022-07-29T14:03:59;29.50;45.00
13591;DHT22;6866;50.778;7.206;2022-07-29T14:06:24;29.60;46.10
13591;DHT22;6866;50.778;7.206;2022-07-29T14:08:50;29.60;45.80
13591;DHT22;6866;50.778;7.206;2022-07-29T14:11:15;29.50;45.20
13591;DHT22;6866;50.778;7.206;2022-07-29T14:13:41;29.50;45.30
13591;DHT22;6866;50.778;7.206;2022-07-29T14:16:06;29.60;45.50
13591;DHT22;6866;50.778;7.206;2022-07-29T14:18:32;29.40;45.20
13591;DHT22;6866;50.778;7.206;2022-07-29T14:20:58;29.60;45.10
13591;DHT22;6866;50.778;7.206;2022-07-29T14:23:24;29.80;44.90
13591;DHT22;6866;50.778;7.206;2022-07-29T14:25:49;29.80;44.50
13591;DHT22;6866;50.778;7.206;2022-07-29T14:28:15;29.90;44.40
13591;DHT22;6866;50.778;7.206;2022-07-29T14:30:41;29.80;44.90
13591;DHT22;6866;50.778;7.206;2022-07-29T14:33:06;29.70;44.70
13591;DHT22;6866;50.778;7.206;2022-07-29T14:35:32;30.00;44.30
13591;DHT22;6866;50.778;7.206;2022-07-29T14:37:57;29.90;43.80
13591;DHT22;6866;50.778;7.206;2022-07-29T14:40:23;29.50;44.20
13591;DHT22;6866;50.778;7.206;2022-07-29T14:42:49;29.50;44.60
13591;DHT22;6866;50.778;7.206;2022-07-29T14:45:14;29.10;45.10
13591;DHT22;6866;50.778;7.206;2022-07-29T14:47:40;29.40;45.20
13591;DHT22;6866;50.778;7.206;2022-07-29T14:50:05;29.20;45.60
13591;DHT22;6866;50.778;7.206;2022-07-29T14:52:31;28.90;45.60
13591;DHT22;6866;50.778;7.206;2022-07-29T14:54:57;28.80;45.50
13591;DHT22;6866;50.778;7.206;2022-07-29T14:57:22;28.50;45.90
13591;DHT22;6866;50.778;7.206;2022-07-29T14:59:48;28.70;46.00
13591;DHT22;6866;50.778;7.206;2022-07-29T15:02:13;28.60;46.40
13591;DHT22;6866;50.778;7.206;2022-07-29T15:04:39;28.50;46.60
13591;DHT22;6866;50.778;7.206;2022-07-29T15:07:04;28.60;47.20
13591;DHT22;6866;50.778;7.206;2022-07-29T15:09:30;28.50;47.40
13591;DHT22;6866;50.778;7.206;2022-07-29T15:11:55;28.60;47.50
13591;DHT22;6866;50.778;7.206;2022-07-29T15:14:21;28.80;47.10
13591;DHT22;6866;50.778;7.206;2022-07-29T15:16:46;28.80;47.20
13591;DHT22;6866;50.778;7.206;2022-07-29T15:19:12;28.60;47.00
13591;DHT22;6866;50.778;7.206;2022-07-29T15:21:37;28.70;47.40
13591;DHT22;6866;50.778;7.206;2022-07-29T15:24:03;28.50;47.00
13591;DHT22;6866;50.778;7.206;2022-07-29T15:26:28;28.30;47.60
13591;DHT22;6866;50.778;7.206;2022-07-29T15:28:54;28.30;47.80
13591;DHT22;6866;50.778;7.206;2022-07-29T15:31:21;28.80;48.00
13591;DHT22;6866;50.778;7.206;2022-07-29T15:33:46;28.70;47.70
13591;DHT22;6866;50.778;7.206;2022-07-29T15:36:12;28.70;47.80
13591;DHT22;6866;50.778;7.206;2022-07-29T15:38:38;28.60;48.30
13591;DHT22;6866;50.778;7.206;2022-07-29T15:41:08;28.70;47.60
13591;DHT22;6866;50.778;7.206;2022-07-29T15:43:33;28.40;47.80
13591;DHT22;6866;50.778;7.206;2022-07-29T15:46:00;28.30;48.00
13591;DHT22;6866;50.778;7.206;2022-07-29T15:48:44;28.10;49.10
13591;DHT22;6866;50.778;7.206;2022-07-29T15:51:10;27.90;48.10
13591;DHT22;6866;50.778;7.206;2022-07-29T15:53:36;28.20;48.50
13591;DHT22;6866;50.778;7.206;2022-07-29T15:56:01;28.10;48.90
13591;DHT22;6866;50.778;7.206;2022-07-29T15:58:27;28.10;48.90
13591;DHT22;6866;50.778;7.206;2022-07-29T16:00:52;27.90;49.10
13591;DHT22;6866;50.778;7.206;2022-07-29T16:03:18;27.90;49.80
13591;DHT22;6866;50.778;7.206;2022-07-29T16:05:43;27.90;49.60
13591;DHT22;6866;50.778;7.206;2022-07-29T16:08:09;27.90;49.60
13591;DHT22;6866;50.778;7.206;2022-07-29T16:10:35;27.90;50.30
13591;DHT22;6866;50.778;7.206;2022-07-29T16:13:00;27.80;49.50
13591;DHT22;6866;50.778;7.206;2022-07-29T16:15:26;27.80;50.00
13591;DHT22;6866;50.778;7.206;2022-07-29T16:17:51;27.50;49.80
13591;DHT22;6866;50.778;7.206;2022-07-29T16:20:17;27.50;50.10
13591;DHT22;6866;50.778;7.206;2022-07-29T16:22:42;27.40;49.90
13591;DHT22;6866;50.778;7.206;2022-07-29T16:25:08;27.30;50.30
13591;DHT22;6866;50.778;7.206;2022-07-29T16:27:34;27.00;51.20
13591;DHT22;6866;50.778;7.206;2022-07-29T16:29:59;27.00;51.20